createdAt,value
2023-05-12T00:01:19.964Z,24.24
2023-05-12T00:03:46.800Z,24.26
2023-05-12T00:06:13.561Z,24.17
2023-05-12T00:08:40.099Z,24.15
2023-05-12T00:11:06.692Z,24.10
2023-05-12T00:13:33.313Z,24.10
2023-05-12T00:16:00.196Z,24.04
2023-05-12T00:18:28.663Z,24.02
2023-05-12T00:20:56.783Z,23.99
2023-05-12T00:23:23.329Z,23.98
2023-05-12T00:25:50.486Z,24.00
2023-05-12T00:28:18.167Z,23.98
2023-05-12T00:30:44.742Z,23.93
2023-05-12T00:33:11.298Z,23.96
2023-05-12T00:35:37.829Z,23.92
2023-05-12T00:38:04.437Z,23.93
2023-05-12T00:40:31.096Z,23.97
2023-05-12T00:42:57.644Z,23.90
2023-05-12T00:45:24.403Z,23.85
2023-05-12T00:47:51.857Z,23.82
2023-05-12T00:50:18.909Z,23.83
2023-05-12T00:52:46.976Z,23.80
2023-05-12T00:55:13.492Z,23.78
2023-05-12T00:57:40.901Z,23.76
2023-05-12T01:00:08.812Z,23.73
2023-05-12T01:02:36.559Z,23.70
2023-05-12T01:05:03.904Z,23.69
2023-05-12T01:07:32.624Z,23.69
2023-05-12T01:10:00.312Z,23.64
2023-05-12T01:12:28.404Z,23.62
2023-05-12T01:14:56.431Z,23.59
2023-05-12T01:17:33.277Z,23.70
2023-05-12T01:20:02.067Z,23.63
2023-05-12T01:22:31.484Z,23.63
2023-05-12T01:24:59.819Z,23.61
2023-05-12T01:27:29.219Z,23.57
2023-05-12T01:29:59.626Z,23.59
2023-05-12T01:32:26.881Z,23.52
2023-05-12T01:34:53.522Z,23.51
2023-05-12T01:37:21.082Z,23.51
2023-05-12T01:39:47.848Z,23.48
2023-05-12T01:42:18.359Z,23.50
2023-05-12T01:44:44.971Z,23.44
2023-05-12T01:47:11.655Z,23.45
2023-05-12T01:49:39.907Z,23.39
2023-05-12T01:52:09.754Z,23.41
2023-05-12T01:54:36.275Z,23.39
2023-05-12T01:57:02.767Z,23.42
2023-05-12T01:59:29.292Z,23.20
2023-05-12T02:01:56.031Z,23.07
2023-05-12T02:04:28.882Z,23.04
2023-05-12T02:06:56.822Z,22.99
2023-05-12T02:09:23.917Z,22.94
2023-05-12T02:11:51.362Z,22.91
2023-05-12T02:14:17.989Z,22.91
2023-05-12T02:16:44.667Z,22.96
2023-05-12T02:19:11.443Z,22.91
2023-05-12T02:21:38.065Z,22.93
2023-05-12T02:24:04.673Z,22.98
2023-05-12T02:26:31.263Z,23.05
2023-05-12T02:28:57.929Z,23.02
2023-05-12T02:31:24.553Z,23.00
2023-05-12T02:33:51.612Z,22.98
2023-05-12T02:36:18.526Z,22.98
2023-05-12T02:38:45.013Z,22.96
2023-05-12T02:41:11.668Z,22.90
2023-05-12T02:43:38.448Z,22.83
2023-05-12T02:46:05.020Z,22.79
2023-05-12T02:48:31.915Z,22.73
2023-05-12T02:50:58.960Z,22.67
2023-05-12T02:53:27.012Z,22.63
2023-05-12T02:55:53.746Z,22.62
2023-05-12T02:58:20.298Z,22.56
2023-05-12T03:00:48.725Z,22.44
2023-05-12T03:03:18.843Z,22.36
2023-05-12T03:05:45.969Z,22.28
2023-05-12T03:08:12.528Z,22.21
2023-05-12T03:10:39.076Z,22.17
2023-05-12T03:13:05.569Z,22.18
2023-05-12T03:15:32.138Z,22.08
